OS63 weather

Marj Ruhayyil Air Base
Marj Ruhayyil, Damascus Governorate, Syria

Public forecast

Using degrees Celsius for public forecast. Weather courtesy of forecast.io.

METAR (pilot weather report)

Closest report is Damascus International Airport, 8.1 nm (14.9 km) NNE. Retrieved 2019/08/21 08:00 UTC (19 minutes ago):

OSDI 210800Z 22005KT CAVOK 29/11 Q1014

TAF (pilot weather forecast)

Forecast is more than 12 hours old.

Closest forecast is Damascus International Airport, 8.1 nm (14.9 km) NNE. Retrieved 2019/08/20 06:36 UTC (1 day ago):

TAF OSDI 200400Z 2006/2112 22015KT CAVOK TEMPO 2012/2018 25015G25KT 9999 FEW030